createdAt,value
2023-01-26T00:00:53.844Z,17.5
2023-01-26T00:02:34.000Z,19.4
2023-01-26T00:04:14.130Z,19.4
2023-01-26T00:05:54.272Z,19.4
2023-01-26T00:07:34.411Z,19.4
2023-01-26T00:09:14.579Z,19.4
2023-01-26T00:10:54.755Z,19.4
2023-01-26T00:12:35.200Z,18.6
2023-01-26T00:14:15.315Z,18.6
2023-01-26T00:15:55.528Z,18.6
2023-01-26T00:17:35.667Z,18.6
2023-01-26T00:19:15.834Z,18.6
2023-01-26T00:20:55.998Z,18.6
2023-01-26T00:22:36.094Z,14.9
2023-01-26T00:24:16.310Z,14.9
2023-01-26T00:25:56.388Z,14.9
2023-01-26T00:27:36.497Z,14.9
2023-01-26T00:29:16.687Z,14.9
2023-01-26T00:30:56.893Z,14.9
2023-01-26T00:32:36.960Z,17.8
2023-01-26T00:34:17.204Z,17.8
2023-01-26T00:35:57.412Z,17.8
2023-01-26T00:37:37.574Z,17.8
2023-01-26T00:39:17.716Z,17.8
2023-01-26T00:40:57.904Z,17.8
2023-01-26T00:42:38.087Z,18.2
2023-01-26T00:44:18.225Z,18.2
2023-01-26T00:45:58.410Z,18.2
2023-01-26T00:47:38.527Z,18.2
2023-01-26T00:49:18.657Z,18.2
2023-01-26T00:50:58.808Z,18.2
2023-01-26T00:52:39.016Z,17.3
2023-01-26T00:54:19.208Z,17.3
2023-01-26T00:55:59.322Z,17.3
2023-01-26T00:57:39.460Z,17.3
2023-01-26T00:59:19.613Z,17.3
2023-01-26T01:00:59.776Z,17.3
2023-01-26T01:02:39.898Z,20
2023-01-26T01:04:20.046Z,20
2023-01-26T01:06:00.201Z,20
2023-01-26T01:07:40.424Z,20
2023-01-26T01:09:20.611Z,20
2023-01-26T01:11:00.832Z,20
2023-01-26T01:12:41.004Z,16.4
2023-01-26T01:14:21.118Z,16.4
2023-01-26T01:16:01.266Z,16.4
2023-01-26T01:17:41.372Z,16.4
2023-01-26T01:19:21.547Z,16.4
2023-01-26T01:21:01.680Z,16.4
2023-01-26T01:22:41.848Z,13.3
2023-01-26T01:24:22.132Z,13.3
2023-01-26T01:26:02.157Z,13.3
2023-01-26T01:27:42.311Z,13.3
2023-01-26T01:29:22.442Z,13.3
2023-01-26T01:31:02.670Z,13.3
2023-01-26T01:32:42.791Z,12.3
2023-01-26T01:34:22.853Z,12.3
2023-01-26T01:36:03.006Z,12.3
2023-01-26T01:37:43.137Z,12.3
2023-01-26T01:39:23.359Z,12.3
2023-01-26T01:41:03.520Z,12.3
2023-01-26T01:42:43.688Z,13
2023-01-26T01:44:23.862Z,13
2023-01-26T01:46:04.059Z,13
2023-01-26T01:47:44.257Z,13
2023-01-26T01:49:24.355Z,13
2023-01-26T01:51:04.530Z,13
2023-01-26T01:52:44.736Z,16.3
2023-01-26T01:54:24.872Z,16.3
2023-01-26T01:56:05.050Z,16.3
2023-01-26T01:57:45.379Z,16.3
2023-01-26T01:59:25.405Z,16.3
2023-01-26T02:01:05.637Z,16.3
2023-01-26T02:02:45.742Z,17.8
2023-01-26T02:04:25.886Z,17.8
2023-01-26T02:06:06.037Z,17.8
2023-01-26T02:07:46.206Z,17.8
2023-01-26T02:09:26.410Z,17.8
2023-01-26T02:11:06.631Z,17.8
2023-01-26T02:12:46.717Z,17.9
2023-01-26T02:14:26.859Z,17.9
2023-01-26T02:16:07.088Z,17.9
2023-01-26T02:17:47.154Z,17.9
2023-01-26T02:19:27.311Z,17.9
2023-01-26T02:21:07.437Z,17.9
2023-01-26T02:22:47.592Z,21.6
2023-01-26T02:24:27.746Z,21.6
2023-01-26T02:26:07.878Z,21.6
2023-01-26T02:27:48.039Z,21.6
2023-01-26T02:29:28.216Z,21.6
2023-01-26T02:31:08.462Z,21.6
2023-01-26T02:32:48.558Z,19.3
2023-01-26T02:34:28.757Z,19.3
2023-01-26T02:36:08.895Z,19.3
2023-01-26T02:37:49.118Z,19.3
2023-01-26T02:39:29.315Z,19.3
2023-01-26T02:41:09.421Z,19.3
2023-01-26T02:42:49.585Z,20.8
2023-01-26T02:44:29.707Z,20.8
2023-01-26T02:46:10.003Z,20.8
2023-01-26T02:47:50.029Z,20.8
2023-01-26T02:49:30.165Z,20.8
2023-01-26T02:51:10.347Z,20.8
2023-01-26T02:52:50.507Z,23.2
2023-01-26T02:54:30.673Z,23.2
2023-01-26T02:56:10.842Z,23.2
2023-01-26T02:57:50.976Z,23.2
2023-01-26T02:59:31.107Z,23.2
2023-01-26T03:01:11.292Z,23.2
2023-01-26T03:02:51.344Z,24.7
2023-01-26T03:04:31.494Z,24.7
2023-01-26T03:06:11.680Z,24.7
2023-01-26T03:07:51.907Z,24.7
2023-01-26T03:09:32.073Z,24.7
2023-01-26T03:11:12.205Z,24.7
2023-01-26T03:12:52.335Z,29.4
2023-01-26T03:14:32.468Z,29.4
2023-01-26T03:16:12.694Z,29.4
2023-01-26T03:17:52.762Z,29.4
2023-01-26T03:19:32.973Z,29.4
2023-01-26T03:21:13.127Z,29.4
2023-01-26T03:24:33.458Z,27
2023-01-26T03:26:13.633Z,27
2023-01-26T03:27:53.768Z,27
2023-01-26T03:29:33.918Z,27
2023-01-26T03:31:14.159Z,27
2023-01-26T03:32:54.254Z,26.4
2023-01-26T03:36:14.508Z,26.4
2023-01-26T03:37:55.204Z,26.4
2023-01-26T03:39:34.850Z,26.4
2023-01-26T03:41:14.978Z,26.4
2023-01-26T03:42:55.185Z,26.4
2023-01-26T03:44:35.331Z,26.8
2023-01-26T03:46:15.503Z,26.8
2023-01-26T03:47:55.676Z,26.8
2023-01-26T03:49:35.785Z,26.8
2023-01-26T03:51:15.945Z,26.8
2023-01-26T03:52:56.182Z,26.8
2023-01-26T03:54:36.407Z,29.4
2023-01-26T03:56:16.606Z,29.4
2023-01-26T03:57:56.802Z,29.4
2023-01-26T03:59:36.893Z,29.4
2023-01-26T04:01:17.047Z,29.4
2023-01-26T04:02:57.140Z,29.4
2023-01-26T04:04:37.275Z,27.2
2023-01-26T04:06:17.448Z,27.2
2023-01-26T04:07:57.620Z,27.2
2023-01-26T04:09:37.812Z,27.2
2023-01-26T04:11:17.929Z,27.2
2023-01-26T04:12:58.076Z,27.2
2023-01-26T04:14:50.464Z,24
2023-01-26T04:16:18.470Z,24
2023-01-26T04:17:58.583Z,24
2023-01-26T04:19:38.723Z,24
2023-01-26T04:21:18.936Z,24
2023-01-26T04:22:59.061Z,24
2023-01-26T04:24:39.236Z,21.2
2023-01-26T04:26:19.353Z,21.2
2023-01-26T04:27:59.501Z,21.2
2023-01-26T04:29:39.684Z,21.2
2023-01-26T04:31:19.802Z,21.2
2023-01-26T04:32:59.921Z,21.2
2023-01-26T04:34:40.081Z,18
2023-01-26T04:36:20.195Z,18
2023-01-26T04:38:00.383Z,18
2023-01-26T04:39:40.558Z,18
2023-01-26T04:41:20.706Z,18
2023-01-26T04:43:00.874Z,18
2023-01-26T04:44:40.979Z,21.1
2023-01-26T04:46:21.137Z,21.1
2023-01-26T04:48:01.271Z,21.1
2023-01-26T04:49:41.385Z,21.1
2023-01-26T04:51:21.497Z,21.1
2023-01-26T04:53:01.736Z,21.1
2023-01-26T04:54:41.882Z,21.9
2023-01-26T04:56:22.089Z,21.9
2023-01-26T04:58:03.688Z,21.9
2023-01-26T04:59:42.362Z,21.9
2023-01-26T05:01:22.489Z,21.9
2023-01-26T05:03:02.605Z,21.9
2023-01-26T05:04:42.743Z,22.3
2023-01-26T05:06:22.885Z,22.3
2023-01-26T05:08:03.016Z,22.3
2023-01-26T05:09:43.134Z,22.3
2023-01-26T05:11:23.305Z,22.3
2023-01-26T05:13:03.460Z,22.3
2023-01-26T05:14:43.570Z,28.6
2023-01-26T05:16:23.702Z,28.6
2023-01-26T05:18:03.822Z,28.6
2023-01-26T05:19:43.994Z,28.6
2023-01-26T05:21:24.088Z,28.6
2023-01-26T05:23:04.188Z,28.6
2023-01-26T05:24:44.349Z,23.7
2023-01-26T05:26:24.559Z,23.7
2023-01-26T05:28:04.711Z,23.7
2023-01-26T05:29:44.837Z,23.7
2023-01-26T05:31:25.014Z,23.7
2023-01-26T05:33:05.165Z,23.7
2023-01-26T05:34:45.348Z,18.6
2023-01-26T05:36:25.548Z,18.6
2023-01-26T05:38:05.668Z,18.6
2023-01-26T05:39:45.844Z,18.6
2023-01-26T05:41:26.007Z,18.6
2023-01-26T05:43:06.196Z,18.6
2023-01-26T05:44:46.417Z,25.8
2023-01-26T05:46:26.617Z,25.8
2023-01-26T05:48:06.741Z,25.8
2023-01-26T05:49:46.883Z,25.8
2023-01-26T05:51:27.057Z,25.8
2023-01-26T05:53:07.329Z,25.8
2023-01-26T05:54:47.495Z,23.8
2023-01-26T05:56:27.672Z,23.8
2023-01-26T05:58:07.802Z,23.8
2023-01-26T05:59:47.951Z,23.8
2023-01-26T06:01:28.122Z,23.8
2023-01-26T06:03:08.346Z,23.8
2023-01-26T06:04:48.546Z,27.4
2023-01-26T06:06:28.701Z,27.4
2023-01-26T06:08:08.913Z,27.4
2023-01-26T06:09:49.085Z,27.4
2023-01-26T06:11:29.340Z,27.4
2023-01-26T06:13:09.470Z,27.4
2023-01-26T06:14:49.582Z,28
2023-01-26T06:16:29.771Z,28
2023-01-26T06:18:09.887Z,28
2023-01-26T06:19:50.019Z,28
2023-01-26T06:21:30.220Z,28
2023-01-26T06:23:17.042Z,28
2023-01-26T06:24:57.158Z,24.9
2023-01-26T06:26:37.338Z,24.9
2023-01-26T06:28:17.478Z,24.9
2023-01-26T06:29:57.596Z,24.9
2023-01-26T06:31:37.825Z,24.9
2023-01-26T06:33:17.909Z,24.9
2023-01-26T06:34:58.074Z,24.3
2023-01-26T06:36:38.226Z,24.3
2023-01-26T06:38:18.472Z,24.3
2023-01-26T06:39:58.715Z,24.3
2023-01-26T06:41:38.772Z,24.3
2023-01-26T06:43:18.967Z,24.3
2023-01-26T06:44:59.131Z,29.8
2023-01-26T06:46:39.319Z,29.8
2023-01-26T06:48:19.511Z,29.8
2023-01-26T06:49:59.639Z,29.8
2023-01-26T06:51:39.837Z,29.8
2023-01-26T06:53:20.002Z,29.8
2023-01-26T06:55:00.140Z,25
2023-01-26T06:56:40.286Z,25
2023-01-26T06:58:20.419Z,25
2023-01-26T07:00:00.532Z,25
2023-01-26T07:01:40.691Z,25
2023-01-26T07:03:20.838Z,25
2023-01-26T07:05:00.969Z,18.5
2023-01-26T07:06:41.123Z,18.5
2023-01-26T07:08:21.287Z,18.5
2023-01-26T07:10:01.557Z,18.5
2023-01-26T07:11:41.639Z,18.5
2023-01-26T07:13:21.835Z,18.5
2023-01-26T07:15:01.998Z,19.1
2023-01-26T07:16:42.166Z,19.1
2023-01-26T07:18:22.270Z,19.1
2023-01-26T07:20:02.410Z,19.1
2023-01-26T07:21:42.522Z,19.1
2023-01-26T07:23:22.678Z,19.1
2023-01-26T07:25:02.841Z,19.1
2023-01-26T07:26:42.997Z,14.8
2023-01-26T07:28:23.177Z,14.8
2023-01-26T07:30:03.380Z,14.8
2023-01-26T07:31:43.488Z,14.8
2023-01-26T07:33:23.618Z,14.8
2023-01-26T07:35:03.807Z,14.8
2023-01-26T07:36:43.951Z,16.1
2023-01-26T07:38:24.101Z,16.1
2023-01-26T07:40:04.281Z,16.1
2023-01-26T07:41:44.436Z,16.1
2023-01-26T07:43:24.667Z,16.1
2023-01-26T07:45:04.827Z,16.1
2023-01-26T07:46:45.781Z,17.3
2023-01-26T07:48:25.096Z,17.3
2023-01-26T07:50:05.247Z,17.3
2023-01-26T07:51:45.379Z,17.3
2023-01-26T07:53:25.599Z,17.3
2023-01-26T07:55:05.748Z,17.3
2023-01-26T07:56:45.869Z,26.5
2023-01-26T07:58:26.000Z,26.5
2023-01-26T08:00:06.177Z,26.5
2023-01-26T08:01:46.353Z,26.5
2023-01-26T08:03:26.467Z,26.5
2023-01-26T08:05:06.609Z,26.5
2023-01-26T08:06:46.742Z,18.75
2023-01-26T08:08:26.885Z,18.75
2023-01-26T08:10:07.093Z,18.75
2023-01-26T08:11:47.221Z,18.75
2023-01-26T08:13:35.285Z,18.75
2023-01-26T08:15:07.503Z,18.75
2023-01-26T08:16:47.701Z,18.7
2023-01-26T08:18:27.801Z,18.7
2023-01-26T08:20:07.930Z,18.7
2023-01-26T08:21:48.103Z,18.7
2023-01-26T08:23:28.283Z,18.7
2023-01-26T08:25:08.479Z,18.7
2023-01-26T08:26:48.626Z,19.05
2023-01-26T08:28:28.759Z,19.05
2023-01-26T08:30:09.181Z,19.05
2023-01-26T08:31:49.016Z,19.05
2023-01-26T08:33:29.101Z,19.05
2023-01-26T08:35:09.237Z,19.05
2023-01-26T08:36:49.426Z,21.95
2023-01-26T08:38:29.591Z,21.95
2023-01-26T08:40:10.182Z,21.95
2023-01-26T08:41:49.913Z,21.95
2023-01-26T08:43:30.069Z,21.95
2023-01-26T08:45:10.244Z,21.95
2023-01-26T08:46:50.402Z,21.5
2023-01-26T08:48:30.533Z,21.5
2023-01-26T08:50:11.016Z,21.5
2023-01-26T08:51:50.834Z,21.5
2023-01-26T08:53:31.084Z,21.5
2023-01-26T08:55:11.238Z,21.5
2023-01-26T08:56:51.430Z,20.2
2023-01-26T08:58:31.529Z,20.2
2023-01-26T09:00:12.074Z,20.2
2023-01-26T09:01:51.913Z,20.2
2023-01-26T09:03:31.922Z,20.2
2023-01-26T09:05:12.062Z,20.2
2023-01-26T09:06:52.213Z,21.7
2023-01-26T09:08:32.362Z,21.7
2023-01-26T09:10:13.059Z,21.7
2023-01-26T09:11:52.618Z,21.7
2023-01-26T09:13:32.808Z,21.7
2023-01-26T09:15:12.965Z,21.7
2023-01-26T09:16:53.129Z,25.25
2023-01-26T09:18:33.199Z,25.25
2023-01-26T09:20:13.597Z,25.25
2023-01-26T09:21:53.900Z,25.25
2023-01-26T09:23:33.668Z,25.25
2023-01-26T09:25:14.008Z,25.25
2023-01-26T09:26:54.015Z,20.55
2023-01-26T09:28:34.136Z,20.55
2023-01-26T09:30:14.333Z,20.55
2023-01-26T09:31:54.606Z,20.55
2023-01-26T09:33:34.576Z,20.55
2023-01-26T09:35:15.339Z,20.55
2023-01-26T09:36:54.858Z,22.95
2023-01-26T09:38:35.012Z,22.95
2023-01-26T09:40:15.196Z,22.95
2023-01-26T09:41:55.356Z,22.95
2023-01-26T09:43:35.521Z,22.95
2023-01-26T09:45:15.630Z,22.95
2023-01-26T09:46:55.781Z,14.35
2023-01-26T09:48:35.972Z,14.35
2023-01-26T09:50:16.097Z,14.35
2023-01-26T09:51:57.624Z,14.35
2023-01-26T09:53:36.437Z,14.35
2023-01-26T09:55:17.055Z,14.35
2023-01-26T09:56:56.707Z,15
2023-01-26T09:58:36.855Z,15
2023-01-26T10:00:16.999Z,15
2023-01-26T10:01:57.155Z,15
2023-01-26T10:03:37.315Z,15
2023-01-26T10:05:17.478Z,15
2023-01-26T10:06:57.606Z,18.55
2023-01-26T10:08:37.747Z,18.55
2023-01-26T10:10:17.877Z,18.55
2023-01-26T10:11:58.010Z,18.55
2023-01-26T10:13:38.180Z,18.55
2023-01-26T10:15:18.416Z,18.55
2023-01-26T10:16:58.509Z,24.75
2023-01-26T10:18:38.697Z,24.75
2023-01-26T10:20:18.841Z,24.75
2023-01-26T10:21:58.989Z,24.75
2023-01-26T10:23:39.147Z,24.75
2023-01-26T10:25:19.308Z,24.75
2023-01-26T10:26:59.421Z,25.05
2023-01-26T10:28:39.602Z,25.05
2023-01-26T10:30:19.960Z,25.05
2023-01-26T10:31:59.894Z,25.05
2023-01-26T10:33:39.987Z,25.05
2023-01-26T10:35:20.183Z,25.05
2023-01-26T10:37:00.325Z,28.2
2023-01-26T10:38:40.442Z,28.2
2023-01-26T10:40:20.626Z,28.2
2023-01-26T10:42:00.832Z,28.2
2023-01-26T10:43:40.941Z,28.2
2023-01-26T10:45:21.075Z,28.2
2023-01-26T10:47:01.336Z,28.2
2023-01-26T10:48:41.411Z,30.7
2023-01-26T10:50:21.554Z,30.7
2023-01-26T10:52:01.677Z,30.7
2023-01-26T10:53:41.864Z,30.7
2023-01-26T10:55:22.010Z,30.7
2023-01-26T10:57:02.109Z,22.9
2023-01-26T10:58:42.259Z,22.9
2023-01-26T11:00:22.426Z,22.9
2023-01-26T11:02:02.626Z,22.9
2023-01-26T11:03:42.763Z,22.9
2023-01-26T11:05:22.998Z,22.9
2023-01-26T11:07:03.114Z,22.9
2023-01-26T11:08:43.240Z,23.95
2023-01-26T11:10:23.432Z,23.95
2023-01-26T11:12:03.568Z,23.95
2023-01-26T11:13:43.766Z,23.95
2023-01-26T11:15:23.925Z,23.95
2023-01-26T11:17:04.047Z,23.95
2023-01-26T11:18:44.237Z,23.45
2023-01-26T11:20:24.386Z,23.45
2023-01-26T11:22:04.591Z,23.45
2023-01-26T11:23:44.708Z,23.45
2023-01-26T11:25:24.847Z,23.45
2023-01-26T11:27:05.019Z,23.45
2023-01-26T11:28:45.126Z,23.6
2023-01-26T11:30:25.267Z,23.6
2023-01-26T11:32:05.417Z,23.6
2023-01-26T11:33:45.560Z,23.6
2023-01-26T11:35:25.752Z,23.6
2023-01-26T11:37:05.987Z,23.6
2023-01-26T11:38:46.148Z,22.2
2023-01-26T11:40:26.268Z,22.2
2023-01-26T11:42:06.496Z,22.2
2023-01-26T11:43:46.628Z,22.2
2023-01-26T11:45:26.837Z,22.2
2023-01-26T11:47:06.973Z,22.2
2023-01-26T11:48:47.084Z,24.55
2023-01-26T11:50:27.227Z,24.55
2023-01-26T11:52:07.440Z,24.55
2023-01-26T11:53:47.717Z,24.55
2023-01-26T11:55:28.049Z,24.55
2023-01-26T11:57:08.337Z,24.55
2023-01-26T11:58:48.480Z,24.1
2023-01-26T12:00:30.741Z,24.1
2023-01-26T12:02:08.797Z,24.1
2023-01-26T12:03:48.873Z,24.1
2023-01-26T12:05:29.033Z,24.1
2023-01-26T12:07:09.151Z,24.1
2023-01-26T12:08:49.302Z,24.15
2023-01-26T12:10:29.459Z,24.15
2023-01-26T12:12:09.617Z,24.15
2023-01-26T12:13:49.805Z,24.15
2023-01-26T12:15:29.965Z,24.15
2023-01-26T12:17:18.177Z,24.15
2023-01-26T12:19:01.860Z,21.2
2023-01-26T12:20:30.499Z,21.2
2023-01-26T12:22:10.727Z,21.2
2023-01-26T12:23:50.786Z,21.2
2023-01-26T12:25:31.596Z,21.2
2023-01-26T12:27:11.012Z,21.2
2023-01-26T12:28:51.220Z,22.35
2023-01-26T12:30:31.482Z,22.35
2023-01-26T12:32:11.506Z,22.35
2023-01-26T12:33:51.705Z,22.35
2023-01-26T12:35:31.833Z,22.35
2023-01-26T12:37:12.026Z,22.35
2023-01-26T12:38:52.222Z,13.65
2023-01-26T12:40:32.333Z,13.65
2023-01-26T12:42:12.513Z,13.65
2023-01-26T12:43:52.641Z,13.65
2023-01-26T12:45:32.781Z,13.65
2023-01-26T12:47:12.951Z,13.65
2023-01-26T12:48:53.098Z,21.8
2023-01-26T12:50:33.244Z,21.8
2023-01-26T12:52:13.401Z,21.8
2023-01-26T12:53:53.573Z,21.8
2023-01-26T12:55:33.749Z,21.8
2023-01-26T12:57:13.860Z,21.8
2023-01-26T12:58:54.038Z,23.35
2023-01-26T13:00:34.153Z,23.35
2023-01-26T13:02:14.330Z,23.35
2023-01-26T13:03:54.460Z,23.35
2023-01-26T13:05:34.620Z,23.35
2023-01-26T13:07:14.763Z,23.35
2023-01-26T13:08:54.886Z,21.7
2023-01-26T13:10:35.045Z,21.7
2023-01-26T13:12:15.151Z,21.7
2023-01-26T13:13:55.350Z,21.7
2023-01-26T13:15:35.583Z,21.7
2023-01-26T13:17:15.708Z,21.7
2023-01-26T13:18:55.833Z,22.4
2023-01-26T13:20:35.980Z,22.4
2023-01-26T13:22:16.138Z,22.4
2023-01-26T13:23:56.332Z,22.4
2023-01-26T13:25:36.422Z,22.4
2023-01-26T13:27:16.605Z,22.4
2023-01-26T13:28:56.760Z,22.75
2023-01-26T13:30:36.921Z,22.75
2023-01-26T13:32:17.029Z,22.75
2023-01-26T13:33:57.164Z,22.75
2023-01-26T13:35:37.290Z,22.75
2023-01-26T13:37:17.400Z,22.75
2023-01-26T13:38:57.578Z,25.4
2023-01-26T13:40:37.753Z,25.4
2023-01-26T13:42:17.885Z,25.4
2023-01-26T13:43:58.092Z,25.4
2023-01-26T13:45:38.190Z,25.4
2023-01-26T13:47:20.619Z,25.4
2023-01-26T13:48:58.528Z,19.7
2023-01-26T13:50:38.620Z,19.7
2023-01-26T13:52:18.783Z,19.7
2023-01-26T13:53:59.019Z,19.7
2023-01-26T13:55:39.246Z,19.7
2023-01-26T13:57:19.412Z,19.7
2023-01-26T13:58:59.549Z,21
2023-01-26T14:00:39.763Z,21
2023-01-26T14:02:19.889Z,21
2023-01-26T14:04:00.013Z,21
2023-01-26T14:05:40.198Z,21
2023-01-26T14:07:20.326Z,21
2023-01-26T14:09:00.469Z,21
2023-01-26T14:10:40.597Z,20.7
2023-01-26T14:12:20.813Z,20.7
2023-01-26T14:14:00.959Z,20.7
2023-01-26T14:15:41.199Z,20.7
2023-01-26T14:17:21.284Z,20.7
2023-01-26T14:19:01.410Z,15.7
2023-01-26T14:20:41.588Z,15.7
2023-01-26T14:22:22.542Z,15.7
2023-01-26T14:24:02.046Z,15.7
2023-01-26T14:25:42.065Z,15.7
2023-01-26T14:27:22.212Z,15.7
2023-01-26T14:29:02.375Z,15.7
2023-01-26T14:30:42.548Z,17.05
2023-01-26T14:32:22.691Z,17.05
2023-01-26T14:34:02.876Z,17.05
2023-01-26T14:35:43.072Z,17.05
2023-01-26T14:37:23.161Z,17.05
2023-01-26T14:39:03.304Z,17.05
2023-01-26T14:40:43.453Z,17.25
2023-01-26T14:42:23.582Z,17.25
2023-01-26T14:44:03.730Z,17.25
2023-01-26T14:45:43.949Z,17.25
2023-01-26T14:47:24.082Z,17.25
2023-01-26T14:49:06.047Z,17.25
2023-01-26T14:50:44.385Z,15.35
2023-01-26T14:52:24.566Z,15.35
2023-01-26T14:54:04.776Z,15.35
2023-01-26T14:55:44.999Z,15.35
2023-01-26T14:57:28.202Z,15.35
2023-01-26T14:59:05.300Z,15.35
2023-01-26T15:00:45.509Z,15.2
2023-01-26T15:02:25.606Z,15.2
2023-01-26T15:04:05.856Z,15.2
2023-01-26T15:05:45.933Z,15.2
2023-01-26T15:07:26.096Z,15.2
2023-01-26T15:09:06.230Z,15.2
2023-01-26T15:10:46.378Z,14.8
2023-01-26T15:12:26.510Z,14.8
2023-01-26T15:14:06.717Z,14.8
2023-01-26T15:15:46.872Z,14.8
2023-01-26T15:17:27.026Z,14.8
2023-01-26T15:19:13.291Z,14.8
2023-01-26T15:20:53.500Z,13.8
2023-01-26T15:22:33.695Z,13.8
2023-01-26T15:24:13.989Z,13.8
2023-01-26T15:25:55.132Z,13.8
2023-01-26T15:27:34.188Z,13.8
2023-01-26T15:29:14.321Z,13.8
2023-01-26T15:30:54.566Z,13.2
2023-01-26T15:32:34.620Z,13.2
2023-01-26T15:34:14.772Z,13.2
2023-01-26T15:35:54.933Z,13.2
2023-01-26T15:37:35.042Z,13.2
2023-01-26T15:39:15.215Z,13.2
2023-01-26T15:40:55.364Z,9.65
2023-01-26T15:42:35.474Z,9.65
2023-01-26T15:44:15.622Z,9.65
2023-01-26T15:45:55.781Z,9.65
2023-01-26T15:47:35.881Z,9.65
2023-01-26T15:49:16.028Z,9.65
2023-01-26T15:50:56.209Z,9.1
2023-01-26T15:52:36.332Z,9.1
2023-01-26T15:54:16.527Z,9.1
2023-01-26T15:55:56.713Z,9.1
2023-01-26T15:57:36.876Z,9.1
2023-01-26T15:59:17.016Z,9.1
2023-01-26T16:00:57.162Z,11.5
2023-01-26T16:02:40.408Z,11.5
2023-01-26T16:04:17.453Z,11.5
2023-01-26T16:05:57.582Z,11.5
2023-01-26T16:07:37.711Z,11.5
2023-01-26T16:09:17.886Z,11.5
2023-01-26T16:10:58.113Z,13.65
2023-01-26T16:12:38.303Z,13.65
2023-01-26T16:14:18.501Z,13.65
2023-01-26T16:15:58.623Z,13.65
2023-01-26T16:17:38.773Z,13.65
2023-01-26T16:19:34.354Z,13.65
2023-01-26T16:20:59.122Z,14.05
2023-01-26T16:22:39.281Z,14.05
2023-01-26T16:24:19.503Z,14.05
2023-01-26T16:25:59.640Z,14.05
2023-01-26T16:27:39.788Z,14.05
2023-01-26T16:29:19.914Z,14.05
2023-01-26T16:31:02.468Z,13.15
2023-01-26T16:32:40.302Z,13.15
2023-01-26T16:34:20.452Z,13.15
2023-01-26T16:37:42.574Z,13.15
2023-01-26T16:39:20.863Z,13.15
2023-01-26T16:41:01.032Z,13.4
2023-01-26T16:42:41.196Z,13.4
2023-01-26T16:44:21.383Z,13.4
2023-01-26T16:46:01.629Z,13.4
2023-01-26T16:47:41.702Z,13.4
2023-01-26T16:49:21.837Z,13.4
2023-01-26T16:51:01.946Z,8.25
2023-01-26T16:52:42.132Z,8.25
2023-01-26T16:54:22.388Z,8.25
2023-01-26T16:56:02.545Z,8.25
2023-01-26T16:57:42.697Z,8.25
2023-01-26T16:59:25.892Z,8.25
2023-01-26T17:01:03.050Z,7.7
2023-01-26T17:02:46.260Z,7.7
2023-01-26T17:04:23.353Z,7.7
2023-01-26T17:06:03.532Z,7.7
2023-01-26T17:07:43.645Z,7.7
2023-01-26T17:09:23.861Z,7.7
2023-01-26T17:11:04.034Z,9.05
2023-01-26T17:12:44.197Z,9.05
2023-01-26T17:14:24.434Z,9.05
2023-01-26T17:16:04.618Z,9.05
2023-01-26T17:17:44.676Z,9.05
2023-01-26T17:19:24.801Z,9.05
2023-01-26T17:21:04.912Z,7.95
2023-01-26T17:22:45.038Z,7.95
2023-01-26T17:24:25.278Z,7.95
2023-01-26T17:26:05.368Z,7.95
2023-01-26T17:27:45.524Z,7.95
2023-01-26T17:29:25.665Z,7.95
2023-01-26T17:31:05.856Z,7.7
2023-01-26T17:32:45.973Z,7.7
2023-01-26T17:34:26.164Z,7.7
2023-01-26T17:36:06.319Z,7.7
2023-01-26T17:37:46.445Z,7.7
2023-01-26T17:39:26.667Z,7.7
2023-01-26T17:41:06.763Z,8
2023-01-26T17:42:46.892Z,8
2023-01-26T17:44:27.093Z,8
2023-01-26T17:46:07.338Z,8
2023-01-26T17:47:47.413Z,8
2023-01-26T17:49:27.599Z,8
2023-01-26T17:51:07.732Z,6.95
2023-01-26T17:52:47.864Z,6.95
2023-01-26T17:54:28.132Z,6.95
2023-01-26T17:56:08.709Z,6.95
2023-01-26T17:57:48.439Z,6.95
2023-01-26T17:59:28.576Z,6.95
2023-01-26T18:01:08.867Z,6.9
2023-01-26T18:02:48.935Z,6.9
2023-01-26T18:04:31.323Z,6.9
2023-01-26T18:06:09.256Z,6.9
2023-01-26T18:07:49.399Z,6.9
2023-01-26T18:09:29.560Z,6.9
2023-01-26T18:11:09.670Z,6.9
2023-01-26T18:12:49.882Z,6.6
2023-01-26T18:14:30.053Z,6.6
2023-01-26T18:16:10.229Z,6.6
2023-01-26T18:17:50.336Z,6.6
2023-01-26T18:19:30.583Z,6.6
2023-01-26T18:21:10.619Z,6.6
2023-01-26T18:22:50.808Z,7.6
2023-01-26T18:24:30.893Z,7.6
2023-01-26T18:26:11.096Z,7.6
2023-01-26T18:27:56.296Z,7.6
2023-01-26T18:29:36.430Z,7.6
2023-01-26T18:31:16.551Z,7.6
2023-01-26T18:32:56.717Z,5.85
2023-01-26T18:34:36.832Z,5.85
2023-01-26T18:36:16.986Z,5.85
2023-01-26T18:37:57.135Z,5.85
2023-01-26T18:39:37.276Z,5.85
2023-01-26T18:41:17.389Z,5.85
2023-01-26T18:42:57.561Z,5.35
2023-01-26T18:44:37.691Z,5.35
2023-01-26T18:46:17.823Z,5.35
2023-01-26T18:47:57.964Z,5.35
2023-01-26T18:49:38.077Z,5.35
2023-01-26T18:51:18.272Z,5.35
2023-01-26T18:52:58.408Z,7.35
2023-01-26T18:54:38.672Z,7.35
2023-01-26T18:56:18.864Z,7.35
2023-01-26T18:57:59.080Z,7.35
2023-01-26T18:59:39.225Z,7.35
2023-01-26T19:01:19.349Z,7.35
2023-01-26T19:02:59.513Z,8.25
2023-01-26T19:04:39.735Z,8.25
2023-01-26T19:06:19.855Z,8.25
2023-01-26T19:07:59.969Z,8.25
2023-01-26T19:09:40.216Z,8.25
2023-01-26T19:11:20.337Z,8.25
2023-01-26T19:13:00.669Z,9
2023-01-26T19:13:00.686Z,9
2023-01-26T19:13:00.695Z,9
2023-01-26T19:13:00.703Z,9
2023-01-26T19:14:40.679Z,9
2023-01-26T19:16:20.847Z,9
2023-01-26T19:18:00.977Z,9
2023-01-26T19:19:41.125Z,9
2023-01-26T19:21:21.275Z,9
2023-01-26T19:23:04.457Z,11.25
2023-01-26T19:24:41.560Z,11.25
2023-01-26T19:26:21.699Z,11.25
2023-01-26T19:28:01.907Z,11.25
2023-01-26T19:29:42.055Z,11.25
2023-01-26T19:31:22.321Z,11.25
2023-01-26T19:33:02.369Z,12.3
2023-01-26T19:34:42.479Z,12.3
2023-01-26T19:36:22.628Z,12.3
2023-01-26T19:38:02.747Z,12.3
2023-01-26T19:39:42.860Z,12.3
2023-01-26T19:41:23.094Z,12.3
2023-01-26T19:43:03.229Z,9
2023-01-26T19:44:43.381Z,9
2023-01-26T19:46:23.592Z,9
2023-01-26T19:48:03.738Z,9
2023-01-26T19:49:43.932Z,9
2023-01-26T19:51:24.151Z,9
2023-01-26T19:53:07.316Z,9.45
2023-01-26T19:54:44.554Z,9.45
2023-01-26T19:56:24.746Z,9.45
2023-01-26T19:58:04.879Z,9.45
2023-01-26T19:59:45.016Z,9.45
2023-01-26T20:01:25.288Z,9.45
2023-01-26T20:03:05.371Z,10.65
2023-01-26T20:04:45.461Z,10.65
2023-01-26T20:06:25.624Z,10.65
2023-01-26T20:08:05.772Z,10.65
2023-01-26T20:09:45.884Z,10.65
2023-01-26T20:11:26.103Z,10.65
2023-01-26T20:13:06.252Z,9.1
2023-01-26T20:14:46.398Z,9.1
2023-01-26T20:16:26.645Z,9.1
2023-01-26T20:18:06.675Z,9.1
2023-01-26T20:19:46.779Z,9.1
2023-01-26T20:21:26.975Z,9.1
2023-01-26T20:23:14.150Z,9.6
2023-01-26T20:24:47.230Z,9.6
2023-01-26T20:26:27.379Z,9.6
2023-01-26T20:28:07.553Z,9.6
2023-01-26T20:29:47.672Z,9.6
2023-01-26T20:31:27.876Z,9.6
2023-01-26T20:33:07.967Z,8.65
2023-01-26T20:34:48.174Z,8.65
2023-01-26T20:36:28.299Z,8.65
2023-01-26T20:38:08.422Z,8.65
2023-01-26T20:39:51.652Z,8.65
2023-01-26T20:41:28.707Z,8.65
2023-01-26T20:43:08.921Z,9.3
2023-01-26T20:44:49.075Z,9.3
2023-01-26T20:46:29.210Z,9.3
2023-01-26T20:48:09.316Z,9.3
2023-01-26T20:49:49.440Z,9.3
2023-01-26T20:51:29.634Z,9.3
2023-01-26T20:53:09.759Z,10.05
2023-01-26T20:54:49.996Z,10.05
2023-01-26T20:56:30.151Z,10.05
2023-01-26T20:58:10.330Z,10.05
2023-01-26T20:59:50.454Z,10.05
2023-01-26T21:01:30.592Z,10.05
2023-01-26T21:03:10.788Z,9.4
2023-01-26T21:04:50.840Z,9.4
2023-01-26T21:06:38.066Z,9.4
2023-01-26T21:08:11.127Z,9.4
2023-01-26T21:09:51.270Z,9.4
2023-01-26T21:11:31.374Z,9.4
2023-01-26T21:13:11.542Z,6.4
2023-01-26T21:14:51.729Z,6.4
2023-01-26T21:16:31.909Z,6.4
2023-01-26T21:18:12.021Z,6.4
2023-01-26T21:19:52.198Z,6.4
2023-01-26T21:21:32.369Z,6.4
2023-01-26T21:23:12.482Z,7.75
2023-01-26T21:24:52.591Z,7.75
2023-01-26T21:26:32.714Z,7.75
2023-01-26T21:28:12.929Z,7.75
2023-01-26T21:29:53.003Z,7.75
2023-01-26T21:31:33.172Z,7.75
2023-01-26T21:33:13.315Z,5.7
2023-01-26T21:34:53.463Z,5.7
2023-01-26T21:36:33.630Z,5.7
2023-01-26T21:38:13.782Z,5.7
2023-01-26T21:39:53.934Z,5.7
2023-01-26T21:41:37.173Z,5.7
2023-01-26T21:43:14.246Z,7.5
2023-01-26T21:44:54.377Z,7.5
2023-01-26T21:46:34.621Z,7.5
2023-01-26T21:48:14.756Z,7.5
2023-01-26T21:49:54.871Z,7.5
2023-01-26T21:51:35.047Z,7.5
2023-01-26T21:53:15.178Z,7.5
2023-01-26T21:54:55.517Z,7.6
2023-01-26T21:56:35.713Z,7.6
2023-01-26T21:58:15.843Z,7.6
2023-01-26T21:59:55.994Z,7.6
2023-01-26T22:01:36.091Z,7.6
2023-01-26T22:03:16.261Z,9.6
2023-01-26T22:04:56.389Z,9.6
2023-01-26T22:06:36.525Z,9.6
2023-01-26T22:08:16.689Z,9.6
2023-01-26T22:09:56.853Z,9.6
2023-01-26T22:11:37.069Z,9.6
2023-01-26T22:13:17.396Z,9.6
2023-01-26T22:19:58.693Z,9.9
2023-01-26T22:21:38.784Z,9.9
2023-01-26T22:23:18.981Z,9.9